Startpagina
METAR-TAF:

METAR-TAF

Vliegvelden :

Internationale Luchthaven Oostende-Brugge

Oostende, België

breedte: 51-12N, lengte: 002-52E, hoogte: 4 m

Actueel weer

Dit bericht is 22 minuten geleden gemaakt, om 15:20 UTC
Wind 8 kt uit het oostnoordoosten
Temperatuur 1°C
Vochtigheid 69%
Druk 1018 hPa
Zicht 10 km of meer
geen wolken onder 1500 m en geen cumulonimbus

METAR: EBOS 201520Z 06008KT CAVOK 01/M04 Q1018 NOSIG

Tijdstip: 16:42 (15:42 UTC)

Verwachting

Dit bericht is 4 uur en het 40 minuten geleden gemaakt, om 11:02 UTC
Verwachting geldig van 20 om 12 UTC tot 21 om 18 UTC
Wind 6 kt uit het oosten
Zicht 10 km of meer
geen wolken onder 1500 m en geen cumulonimbus

TAF: EBOS 201102Z 2012/2118 08006KT CAVOK

Waarnemingen en weersverwachtingen van meer dan 4000 vliegvelden (METAR en TAF).

De beschikbare stations zijn de gele en rode punten op de kaart.

Ga met uw muis naar het station om de naam te zien.

Klik dan om waarnemingen en weersverwachtingen te zien.

kaart wijzigen: klik op de groene knoppen met een zwart kruis om in te zoomen, op de groene knop met een streepje om uit te zoomen of op de groene pijlen voor aangrenzende kaarten.


METAR-TAF: